createdAt,value
2022-10-17T00:00:45.250Z,5.88
2022-10-17T00:03:13.189Z,6.97
2022-10-17T00:05:42.931Z,4.05
2022-10-17T00:08:11.804Z,6.13
2022-10-17T00:10:40.317Z,3.00
2022-10-17T00:13:09.287Z,5.03
2022-10-17T00:15:37.033Z,5.35
2022-10-17T00:18:05.186Z,2.78
2022-10-17T00:20:35.622Z,4.57
2022-10-17T00:23:03.389Z,5.30
2022-10-17T00:25:31.057Z,5.25
2022-10-17T00:27:58.726Z,6.13
2022-10-17T00:30:26.337Z,6.05
2022-10-17T00:32:53.684Z,6.30
2022-10-17T00:35:21.385Z,5.10
2022-10-17T00:37:49.216Z,3.20
2022-10-17T00:40:16.816Z,5.95
2022-10-17T00:42:44.491Z,5.55
2022-10-17T00:45:27.206Z,6.78
2022-10-17T00:48:02.174Z,5.93
2022-10-17T00:50:30.153Z,5.47
2022-10-17T00:53:00.969Z,5.18
2022-10-17T00:55:32.382Z,4.95
2022-10-17T00:58:02.587Z,3.33
2022-10-17T01:00:30.251Z,5.50
2022-10-17T01:02:58.121Z,5.57
2022-10-17T01:05:25.866Z,6.18
2022-10-17T01:07:54.342Z,4.55
2022-10-17T01:10:27.101Z,3.55
2022-10-17T01:13:13.749Z,4.97
2022-10-17T01:16:05.009Z,4.18
2022-10-17T01:19:03.042Z,4.32
2022-10-17T01:21:43.670Z,3.67
2022-10-17T01:24:42.704Z,4.80
2022-10-17T01:27:29.444Z,3.60
2022-10-17T01:30:27.604Z,4.68
2022-10-17T01:32:58.675Z,7.75
2022-10-17T01:35:36.178Z,9.15
2022-10-17T01:38:11.308Z,5.63
2022-10-17T01:40:48.506Z,5.75
2022-10-17T01:43:24.812Z,5.22
2022-10-17T01:45:57.390Z,7.03
2022-10-17T01:48:30.126Z,3.45
2022-10-17T01:51:08.022Z,6.35
2022-10-17T01:53:43.192Z,5.28
2022-10-17T01:56:13.512Z,4.88
2022-10-17T01:58:47.565Z,6.57
2022-10-17T02:01:15.384Z,8.40
2022-10-17T02:03:45.398Z,4.65
2022-10-17T02:06:13.216Z,5.20
2022-10-17T02:08:44.099Z,3.15
2022-10-17T02:11:19.865Z,4.75
2022-10-17T02:14:06.415Z,5.32
2022-10-17T02:16:42.564Z,4.60
2022-10-17T02:19:34.606Z,5.50
2022-10-17T02:22:25.239Z,4.55
2022-10-17T02:25:14.469Z,7.60
2022-10-17T02:27:51.676Z,3.50
2022-10-17T02:30:37.374Z,7.10
2022-10-17T02:33:19.223Z,6.28
2022-10-17T02:35:54.925Z,9.95
2022-10-17T02:38:25.235Z,4.65
2022-10-17T02:40:54.046Z,5.57
2022-10-17T02:43:23.054Z,7.55
2022-10-17T02:45:53.964Z,8.57
2022-10-17T02:48:42.813Z,5.40
2022-10-17T02:51:29.966Z,5.15
2022-10-17T02:54:17.584Z,7.88
2022-10-17T02:56:53.773Z,6.38
2022-10-17T02:59:23.597Z,5.90
2022-10-17T03:01:51.870Z,6.20
2022-10-17T03:04:20.070Z,3.97
2022-10-17T03:06:49.152Z,7.72
2022-10-17T03:09:17.484Z,5.50
2022-10-17T03:11:45.145Z,2.25
2022-10-17T03:14:13.122Z,2.83
2022-10-17T03:16:40.814Z,6.47
2022-10-17T03:19:09.332Z,6.50
2022-10-17T03:21:38.245Z,4.30
2022-10-17T03:24:06.385Z,6.03
2022-10-17T03:26:34.858Z,4.05
2022-10-17T03:29:02.758Z,5.53
2022-10-17T03:31:30.578Z,4.32
2022-10-17T03:33:58.517Z,4.50
2022-10-17T03:36:26.221Z,4.80
2022-10-17T03:38:55.104Z,5.85
2022-10-17T03:41:23.038Z,5.63
2022-10-17T03:43:54.643Z,7.53
2022-10-17T03:46:22.563Z,2.58
2022-10-17T03:48:50.306Z,6.70
2022-10-17T03:51:18.172Z,6.22
2022-10-17T03:53:46.426Z,3.42
2022-10-17T03:56:18.495Z,4.20
2022-10-17T03:58:46.447Z,8.88
2022-10-17T04:01:15.539Z,6.25
2022-10-17T04:03:44.047Z,6.72
2022-10-17T04:06:13.048Z,6.25
2022-10-17T04:08:40.858Z,5.82
2022-10-17T04:11:09.124Z,4.38
2022-10-17T04:13:37.072Z,6.70
2022-10-17T04:16:07.580Z,5.95
2022-10-17T04:18:35.389Z,4.40
2022-10-17T04:21:04.729Z,5.72
2022-10-17T04:23:32.663Z,5.38
2022-10-17T04:26:01.548Z,9.25
2022-10-17T04:28:29.661Z,7.28
2022-10-17T04:31:02.885Z,6.47
2022-10-17T04:33:31.177Z,5.93
2022-10-17T04:36:04.656Z,6.72
2022-10-17T04:38:32.655Z,5.40
2022-10-17T04:41:03.458Z,5.75
2022-10-17T04:43:33.052Z,7.68
2022-10-17T04:46:02.224Z,4.78
2022-10-17T04:48:30.076Z,5.32
2022-10-17T04:51:03.859Z,5.50
2022-10-17T04:53:33.672Z,9.18
2022-10-17T04:56:01.617Z,5.95
2022-10-17T04:58:30.548Z,8.38
2022-10-17T05:00:58.878Z,8.25
2022-10-17T05:03:27.129Z,6.28
2022-10-17T05:05:55.252Z,6.32
2022-10-17T05:08:23.304Z,7.10
2022-10-17T05:10:51.165Z,9.50
2022-10-17T05:13:19.382Z,5.40
2022-10-17T05:15:47.447Z,6.18
2022-10-17T05:18:15.237Z,5.88
2022-10-17T05:20:43.220Z,9.15
2022-10-17T05:23:11.423Z,6.57
2022-10-17T05:25:39.250Z,8.80
2022-10-17T05:28:07.289Z,7.72
2022-10-17T05:30:36.879Z,9.43
2022-10-17T05:33:05.439Z,6.38
2022-10-17T05:35:33.174Z,6.80
2022-10-17T05:38:01.162Z,10.35
2022-10-17T05:40:28.941Z,13.20
2022-10-17T05:42:56.593Z,4.93
2022-10-17T05:45:24.659Z,7.80
2022-10-17T05:47:52.458Z,11.02
2022-10-17T05:50:22.129Z,10.55
2022-10-17T05:52:53.966Z,8.13
2022-10-17T05:55:21.691Z,7.38
2022-10-17T05:57:49.889Z,5.55
2022-10-17T06:00:17.786Z,6.15
2022-10-17T06:02:46.170Z,7.78
2022-10-17T06:05:14.173Z,10.40
2022-10-17T06:07:42.017Z,5.15
2022-10-17T06:10:16.618Z,7.75
2022-10-17T06:12:45.659Z,9.38
2022-10-17T06:15:13.899Z,5.78
2022-10-17T06:17:42.154Z,8.05
2022-10-17T06:20:10.165Z,4.65
2022-10-17T06:22:38.062Z,11.30
2022-10-17T06:25:06.030Z,5.88
2022-10-17T06:27:33.797Z,5.38
2022-10-17T06:30:01.270Z,9.15
2022-10-17T06:32:29.771Z,9.25
2022-10-17T06:34:57.276Z,7.70
2022-10-17T06:37:25.328Z,10.70
2022-10-17T06:39:53.241Z,11.15
2022-10-17T06:42:21.080Z,9.73
2022-10-17T06:44:48.682Z,6.68
2022-10-17T06:47:19.248Z,11.02
2022-10-17T06:49:47.631Z,8.77
2022-10-17T06:52:17.206Z,9.57
2022-10-17T06:54:45.070Z,9.50
2022-10-17T06:57:12.889Z,7.00
2022-10-17T06:59:40.338Z,9.65
2022-10-17T07:02:09.309Z,7.03
2022-10-17T07:04:37.327Z,8.50
2022-10-17T07:07:05.491Z,8.50
2022-10-17T07:09:33.646Z,7.93
2022-10-17T07:12:02.329Z,13.52
2022-10-17T07:14:32.341Z,6.35
2022-10-17T07:17:00.951Z,5.55
2022-10-17T07:19:28.708Z,8.65
2022-10-17T07:21:56.536Z,8.82
2022-10-17T07:24:24.028Z,8.30
2022-10-17T07:26:51.608Z,12.68
2022-10-17T07:29:19.479Z,6.15
2022-10-17T07:31:48.976Z,7.35
2022-10-17T07:34:16.974Z,8.63
2022-10-17T07:36:44.576Z,6.45
2022-10-17T07:39:12.288Z,7.90
2022-10-17T07:41:40.093Z,8.43
2022-10-17T07:44:07.663Z,6.38
2022-10-17T07:46:35.753Z,8.48
2022-10-17T07:49:03.342Z,16.25
2022-10-17T07:51:31.003Z,6.20
2022-10-17T07:54:00.360Z,9.15
2022-10-17T07:56:31.597Z,9.43
2022-10-17T07:59:05.200Z,7.35
2022-10-17T08:01:39.383Z,8.30
2022-10-17T08:04:10.356Z,8.93
2022-10-17T08:06:39.426Z,6.30
2022-10-17T08:09:09.507Z,7.57
2022-10-17T08:11:39.527Z,7.35
2022-10-17T08:14:07.867Z,7.00
2022-10-17T08:16:36.162Z,8.77
2022-10-17T08:19:05.259Z,10.25
2022-10-17T08:21:33.056Z,6.18
2022-10-17T08:24:03.153Z,9.02
2022-10-17T08:26:31.161Z,6.50
2022-10-17T08:28:58.970Z,8.88
2022-10-17T08:31:27.480Z,8.50
2022-10-17T08:33:55.473Z,9.30
2022-10-17T08:36:23.285Z,8.23
2022-10-17T08:38:52.988Z,5.65
2022-10-17T08:41:40.822Z,6.07
2022-10-17T08:44:23.468Z,15.02
2022-10-17T08:46:59.066Z,10.48
2022-10-17T08:49:42.085Z,12.18
2022-10-17T08:54:47.237Z,8.40
2022-10-17T08:57:16.884Z,9.57
2022-10-17T08:59:50.536Z,8.93
2022-10-17T09:02:46.173Z,8.77
2022-10-17T09:05:28.526Z,8.57
2022-10-17T09:08:25.455Z,13.10
2022-10-17T09:11:23.670Z,8.07
2022-10-17T09:14:05.146Z,10.30
2022-10-17T09:16:58.366Z,15.10
2022-10-17T09:19:35.512Z,8.07
2022-10-17T09:22:11.250Z,11.32
2022-10-17T09:24:45.375Z,8.05
2022-10-17T09:27:39.275Z,9.23
2022-10-17T09:30:44.056Z,7.72
2022-10-17T09:33:34.689Z,7.90
2022-10-17T09:36:06.421Z,9.13
2022-10-17T09:38:41.273Z,11.52
2022-10-17T09:41:43.777Z,11.68
2022-10-17T09:44:30.143Z,10.20
2022-10-17T09:47:21.622Z,10.45
2022-10-17T09:49:50.148Z,7.70
2022-10-17T09:52:25.550Z,13.57
2022-10-17T09:54:59.126Z,12.27
2022-10-17T09:57:28.132Z,7.80
2022-10-17T10:00:00.485Z,7.32
2022-10-17T10:02:31.511Z,9.48
2022-10-17T10:05:06.726Z,8.52
2022-10-17T10:07:39.765Z,8.98
2022-10-17T10:10:28.211Z,11.20
2022-10-17T10:13:07.559Z,8.30
2022-10-17T10:15:44.009Z,6.88
2022-10-17T10:18:34.219Z,8.02
2022-10-17T10:21:11.190Z,8.20
2022-10-17T10:23:45.011Z,11.60
2022-10-17T10:26:26.130Z,10.52
2022-10-17T10:29:09.775Z,7.93
2022-10-17T10:31:50.025Z,9.73
2022-10-17T10:34:30.698Z,10.02
2022-10-17T10:37:07.436Z,13.15
2022-10-17T10:39:50.237Z,7.38
2022-10-17T10:42:29.171Z,11.75
2022-10-17T10:45:07.474Z,8.23
2022-10-17T10:48:07.979Z,13.75
2022-10-17T10:50:45.798Z,11.45
2022-10-17T10:53:40.179Z,14.18
2022-10-17T10:56:28.298Z,9.38
2022-10-17T10:59:13.081Z,10.15
2022-10-17T11:01:56.782Z,14.05
2022-10-17T11:04:39.003Z,10.65
2022-10-17T11:07:22.927Z,8.65
2022-10-17T11:10:09.195Z,14.93
2022-10-17T11:15:41.121Z,9.57
2022-10-17T11:18:29.478Z,9.70
2022-10-17T11:21:18.597Z,10.73
2022-10-17T11:23:57.884Z,13.43
2022-10-17T11:26:35.298Z,9.95
2022-10-17T11:29:09.396Z,10.60
2022-10-17T11:31:50.144Z,11.85
2022-10-17T11:34:38.860Z,10.77
2022-10-17T11:37:28.650Z,8.10
2022-10-17T11:40:05.065Z,11.50
2022-10-17T11:42:54.148Z,12.30
2022-10-17T11:45:28.373Z,10.57
2022-10-17T11:48:07.980Z,11.45
2022-10-17T11:54:00.482Z,9.85
2022-10-17T11:57:03.828Z,10.68
2022-10-17T11:59:54.321Z,11.52
2022-10-17T12:02:46.566Z,12.85
2022-10-17T12:05:29.967Z,10.90
2022-10-17T12:08:17.985Z,10.82
2022-10-17T12:11:07.973Z,8.85
2022-10-17T12:13:51.137Z,12.75
2022-10-17T12:16:44.765Z,14.82
2022-10-17T12:19:26.920Z,24.48
2022-10-17T12:21:57.960Z,15.05
2022-10-17T12:24:45.180Z,7.32
2022-10-17T12:27:34.559Z,14.15
2022-10-17T12:30:19.567Z,11.80
2022-10-17T12:33:09.275Z,10.45
2022-10-17T12:35:40.257Z,15.00
2022-10-17T12:38:27.475Z,13.63
2022-10-17T12:40:59.705Z,15.80
2022-10-17T12:43:47.840Z,14.13
2022-10-17T12:46:47.976Z,13.80
2022-10-17T12:49:55.791Z,13.77
2022-10-17T12:52:48.062Z,12.15
2022-10-17T12:55:22.834Z,12.70
2022-10-17T12:58:08.865Z,16.40
2022-10-17T13:01:18.812Z,14.82
2022-10-17T13:03:50.433Z,17.25
2022-10-17T13:06:26.657Z,15.38
2022-10-17T13:09:04.262Z,20.50
2022-10-17T13:11:38.528Z,16.35
2022-10-17T13:14:15.689Z,14.77
2022-10-17T13:17:04.295Z,16.90
2022-10-17T13:19:45.964Z,15.20
2022-10-17T13:22:24.357Z,12.93
2022-10-17T13:25:08.211Z,13.27
2022-10-17T13:27:38.866Z,15.25
2022-10-17T13:30:30.912Z,14.85
2022-10-17T13:33:04.165Z,15.15
2022-10-17T13:38:28.789Z,20.80
2022-10-17T13:41:10.885Z,17.88
2022-10-17T13:43:50.253Z,19.08
2022-10-17T13:46:37.996Z,15.85
2022-10-17T13:49:28.100Z,15.55
2022-10-17T13:51:59.187Z,15.40
2022-10-17T13:54:45.829Z,17.58
2022-10-17T13:57:26.150Z,18.33
2022-10-17T13:59:59.199Z,15.30
2022-10-17T14:02:32.546Z,18.17
2022-10-17T14:05:20.329Z,19.52
2022-10-17T14:08:11.357Z,16.92
2022-10-17T14:10:47.052Z,16.85
2022-10-17T14:13:24.411Z,16.65
2022-10-17T14:16:04.319Z,15.15
2022-10-17T14:18:38.345Z,20.00
2022-10-17T14:27:05.085Z,17.63
2022-10-17T14:29:53.917Z,15.05
2022-10-17T14:32:25.211Z,14.88
2022-10-17T14:35:17.892Z,14.35
2022-10-17T14:37:52.438Z,12.75
2022-10-17T14:40:27.171Z,16.30
2022-10-17T14:43:02.072Z,17.65
2022-10-17T14:45:35.725Z,19.58
2022-10-17T14:48:17.252Z,16.05
2022-10-17T14:51:18.243Z,19.02
2022-10-17T14:54:05.692Z,14.57
2022-10-17T14:56:39.785Z,19.45
2022-10-17T14:59:18.193Z,15.65
2022-10-17T15:01:52.568Z,14.57
2022-10-17T15:04:20.858Z,18.20
2022-10-17T15:06:56.902Z,20.67
2022-10-17T15:09:30.243Z,16.60
2022-10-17T15:14:36.367Z,19.17
2022-10-17T15:17:16.498Z,18.65
2022-10-17T15:19:48.822Z,15.48
2022-10-17T15:22:20.379Z,18.33
2022-10-17T15:24:51.109Z,16.00
2022-10-17T15:27:25.954Z,15.48
2022-10-17T15:29:57.282Z,16.63
2022-10-17T15:32:28.500Z,15.00
2022-10-17T15:34:59.278Z,15.43
2022-10-17T15:37:27.421Z,14.40
2022-10-17T15:39:59.842Z,16.23
2022-10-17T15:42:34.078Z,18.25
2022-10-17T15:45:02.878Z,18.40
2022-10-17T15:47:44.095Z,19.50
2022-10-17T15:50:18.541Z,19.48
2022-10-17T15:52:53.311Z,17.00
2022-10-17T15:55:31.567Z,17.02
2022-10-17T15:58:02.339Z,19.48
2022-10-17T16:00:34.979Z,23.98
2022-10-17T16:03:08.709Z,22.95
2022-10-17T16:05:44.657Z,19.83
2022-10-17T16:08:32.313Z,39.10
2022-10-17T16:11:05.789Z,21.70
2022-10-17T16:13:41.765Z,18.73
2022-10-17T16:16:17.190Z,20.98
2022-10-17T16:18:48.040Z,20.75
2022-10-17T16:21:19.360Z,17.08
2022-10-17T16:23:50.175Z,18.02
2022-10-17T16:26:22.345Z,18.25
2022-10-17T16:28:54.525Z,22.35
2022-10-17T16:31:33.163Z,18.92
2022-10-17T16:34:06.513Z,16.25
2022-10-17T16:36:41.962Z,18.58
2022-10-17T16:39:16.890Z,18.38
2022-10-17T16:41:53.591Z,17.63
2022-10-17T16:44:27.589Z,19.67
2022-10-17T16:47:06.631Z,19.35
2022-10-17T16:49:39.281Z,18.73
2022-10-17T16:52:16.880Z,17.52
2022-10-17T16:54:51.315Z,17.10
2022-10-17T16:57:21.251Z,21.55
2022-10-17T16:59:51.451Z,17.25
2022-10-17T17:02:23.803Z,21.60
2022-10-17T17:04:53.979Z,16.77
2022-10-17T17:07:26.935Z,16.63
2022-10-17T17:10:00.196Z,16.48
2022-10-17T17:12:29.881Z,18.98
2022-10-17T17:15:00.188Z,15.90
2022-10-17T17:17:48.739Z,18.33
2022-10-17T17:20:21.318Z,16.05
2022-10-17T17:22:53.868Z,16.30
2022-10-17T17:25:28.092Z,14.90
2022-10-17T17:27:56.227Z,16.17
2022-10-17T17:30:26.724Z,16.88
2022-10-17T17:32:58.218Z,17.88
2022-10-17T17:35:26.886Z,14.65
2022-10-17T17:37:59.977Z,18.70
2022-10-17T17:40:32.585Z,19.77
2022-10-17T17:43:07.159Z,17.40
2022-10-17T17:45:38.276Z,18.48
2022-10-17T17:48:09.745Z,16.23
2022-10-17T17:50:42.833Z,18.33
2022-10-17T17:53:20.069Z,19.02
2022-10-17T17:56:03.280Z,16.02
2022-10-17T17:58:36.901Z,16.08
2022-10-17T18:01:15.195Z,17.20
2022-10-17T18:03:47.074Z,17.00
2022-10-17T18:06:25.305Z,13.43
2022-10-17T18:08:59.932Z,16.58
2022-10-17T18:11:31.401Z,17.83
2022-10-17T18:14:06.628Z,16.57
2022-10-17T18:16:42.612Z,18.30
2022-10-17T18:19:14.981Z,38.17
2022-10-17T18:21:45.090Z,19.10
2022-10-17T18:24:18.051Z,17.13
2022-10-17T18:26:57.713Z,43.33
2022-10-17T18:29:32.147Z,16.85
2022-10-17T18:32:06.769Z,18.23
2022-10-17T18:34:37.549Z,24.90
2022-10-17T18:37:10.317Z,68.90
2022-10-17T18:39:42.293Z,16.55
2022-10-17T18:42:13.998Z,21.52
2022-10-17T18:44:45.721Z,21.17
2022-10-17T18:47:16.351Z,25.35
2022-10-17T18:49:48.015Z,30.58
2022-10-17T18:52:19.196Z,35.10
2022-10-17T18:54:50.047Z,29.83
2022-10-17T18:57:21.470Z,37.65
2022-10-17T18:59:53.241Z,17.65
2022-10-17T19:02:24.044Z,28.92
2022-10-17T19:04:54.928Z,18.77
2022-10-17T19:07:25.633Z,20.63
2022-10-17T19:09:57.142Z,19.05
2022-10-17T19:12:26.273Z,19.27
2022-10-17T19:14:57.054Z,18.42
2022-10-17T19:17:28.254Z,18.23
2022-10-17T19:19:57.204Z,18.05
2022-10-17T19:22:25.629Z,17.15
2022-10-17T19:24:54.245Z,18.17
2022-10-17T19:27:24.276Z,16.63
2022-10-17T19:29:55.030Z,16.00
2022-10-17T19:32:23.285Z,16.85
2022-10-17T19:34:51.644Z,17.27
2022-10-17T19:37:19.943Z,17.83
2022-10-17T19:39:49.561Z,14.68
2022-10-17T19:42:17.543Z,13.90
2022-10-17T19:44:45.649Z,17.55
2022-10-17T19:47:13.559Z,14.73
2022-10-17T19:49:41.471Z,17.23
2022-10-17T19:52:09.141Z,16.20
2022-10-17T19:54:36.896Z,16.88
2022-10-17T19:57:08.088Z,17.30
2022-10-17T19:59:38.633Z,16.30
2022-10-17T20:02:06.476Z,17.35
2022-10-17T20:04:45.417Z,19.48
2022-10-17T20:07:24.899Z,17.25
2022-10-17T20:09:54.733Z,17.40
2022-10-17T20:12:22.890Z,17.63
2022-10-17T20:14:51.838Z,15.45
2022-10-17T20:17:20.167Z,16.13
2022-10-17T20:19:47.905Z,16.75
2022-10-17T20:22:17.981Z,15.75
2022-10-17T20:24:46.262Z,24.40
2022-10-17T20:27:15.115Z,17.25
2022-10-17T20:29:43.495Z,34.58
2022-10-17T20:32:11.589Z,20.05
2022-10-17T20:34:39.570Z,16.05
2022-10-17T20:37:07.400Z,16.55
2022-10-17T20:39:35.121Z,19.80
2022-10-17T20:42:02.952Z,19.95
2022-10-17T20:44:30.700Z,26.30
2022-10-17T20:47:02.232Z,21.65
2022-10-17T20:49:30.716Z,16.80
2022-10-17T20:51:59.165Z,19.42
2022-10-17T20:54:29.278Z,18.42
2022-10-17T20:56:59.852Z,14.40
2022-10-17T20:59:31.948Z,18.65
2022-10-17T21:02:00.369Z,25.17
2022-10-17T21:04:46.021Z,15.05
2022-10-17T21:07:16.732Z,16.98
2022-10-17T21:09:46.580Z,20.23
2022-10-17T21:12:21.883Z,14.68
2022-10-17T21:15:01.683Z,14.48
2022-10-17T21:17:35.373Z,15.63
2022-10-17T21:20:04.867Z,12.65
2022-10-17T21:22:35.201Z,16.55
2022-10-17T21:25:06.312Z,15.50
2022-10-17T21:27:36.139Z,16.90
2022-10-17T21:30:04.982Z,20.30
2022-10-17T21:32:50.485Z,12.85
2022-10-17T21:35:19.086Z,16.83
2022-10-17T21:37:46.774Z,13.57
2022-10-17T21:40:14.636Z,14.43
2022-10-17T21:42:42.356Z,17.83
2022-10-17T21:45:15.631Z,14.85
2022-10-17T21:48:11.263Z,16.63
2022-10-17T21:50:35.656Z,17.48
2022-10-17T21:53:03.496Z,16.50
2022-10-17T21:55:30.876Z,20.52
2022-10-17T21:57:58.288Z,18.45
2022-10-17T22:00:26.037Z,16.02
2022-10-17T22:02:53.698Z,15.20
2022-10-17T22:05:21.385Z,15.45
2022-10-17T22:07:49.153Z,16.92
2022-10-17T22:10:16.505Z,19.05
2022-10-17T22:12:47.252Z,19.15
2022-10-17T22:15:18.975Z,18.38
2022-10-17T22:17:49.763Z,15.68
2022-10-17T22:20:21.716Z,16.05
2022-10-17T22:22:51.781Z,13.93
2022-10-17T22:25:22.387Z,11.75
2022-10-17T22:27:55.108Z,14.77
2022-10-17T22:30:25.023Z,14.60
2022-10-17T22:32:53.741Z,13.30
2022-10-17T22:35:21.605Z,16.77
2022-10-17T22:37:49.226Z,17.38
2022-10-17T22:40:16.835Z,14.23
2022-10-17T22:42:44.733Z,13.43
2022-10-17T22:45:12.257Z,15.90
2022-10-17T22:47:40.109Z,14.25
2022-10-17T22:50:09.919Z,13.30
2022-10-17T22:52:37.620Z,12.27
2022-10-17T22:55:05.503Z,14.65
2022-10-17T22:57:33.152Z,13.27
2022-10-17T23:00:01.013Z,12.18
2022-10-17T23:02:29.074Z,15.23
2022-10-17T23:04:57.013Z,13.65
2022-10-17T23:07:24.624Z,15.25
2022-10-17T23:09:52.529Z,13.65
2022-10-17T23:12:20.857Z,15.32
2022-10-17T23:14:48.811Z,13.25
2022-10-17T23:17:16.633Z,14.27
2022-10-17T23:19:44.348Z,14.40
2022-10-17T23:22:12.049Z,11.80
2022-10-17T23:24:39.704Z,17.45
2022-10-17T23:27:07.603Z,14.73
2022-10-17T23:29:35.602Z,13.32
2022-10-17T23:32:03.143Z,22.17
2022-10-17T23:34:30.894Z,30.90
2022-10-17T23:36:58.406Z,13.88
2022-10-17T23:39:26.393Z,14.98
2022-10-17T23:41:54.057Z,13.88
2022-10-17T23:44:22.764Z,16.52
2022-10-17T23:46:50.598Z,58.10
2022-10-17T23:49:18.390Z,15.20
2022-10-17T23:51:46.153Z,14.02
2022-10-17T23:54:13.907Z,11.57
2022-10-17T23:56:41.557Z,11.43
2022-10-17T23:59:11.003Z,12.52
